메인 페이지
METAR-TAF:

METAR-TAF

공항 :

A.L. Mangham Jr. Regional Airport

Nacogdoches, 텍사스, 미국

위도: 31-35N, 경도: 094-43W, 고도: 108m

현재 날씨관측

예보는 8분 전, 08:56시(UTC)에 발표되었습니다.
남남서8kt
온도 17°C
습도 100%
기압 1011 hPa
시정: 14.5km
고도 600ft 상공 흐림

METAR: KOCH 090856Z AUTO 20008KT 9SM OVC006 17/17 A2985 RMK AO2 SLP111 6//// T01720172 56014 PNO $

시각: 03:04 (09:04 UTC)


TAF: 누락

4,000개 이상의 공항 관측 자료 및 예보 (METAR 및 TAF 보고).

지도상에서 검색 가능한 기상관측소가 노란 점과 빨간 점으로 표시되어 있습니다.

기상관측소 명을 보려면 표시 위로 마우스를 이동하세요.

날씨 관측과 예보를 보려면 클릭하세요.

지도 변경 : 확대하려면 엑스 표시가 있는 녹색 버튼, 축소하려면 빼기 표시가 있는 녹색 버튼, 다음 페이지의 지도를 보려면 녹색 화살표를 클릭하세요.


METAR-TAF: